sensor_id;sensor_type;location;lat;lon;timestamp;temperature;humidity
46634;DHT22;32362;49.986;8.026;2023-07-20T00:47:42;23.60;90.10
46634;DHT22;32362;49.986;8.026;2023-07-20T01:14:23;23.70;88.90
46634;DHT22;32362;49.986;8.026;2023-07-20T01:41:06;23.90;71.10
46634;DHT22;32362;49.986;8.026;2023-07-20T02:07:46;24.40;88.10
46634;DHT22;32362;49.986;8.026;2023-07-20T02:34:32;24.80;88.50
46634;DHT22;32362;49.986;8.026;2023-07-20T03:01:12;24.60;66.70
46634;DHT22;32362;49.986;8.026;2023-07-20T03:27:53;24.50;65.50
46634;DHT22;32362;49.986;8.026;2023-07-20T03:54:34;23.70;67.00
46634;DHT22;32362;49.986;8.026;2023-07-20T04:21:15;24.20;66.20
46634;DHT22;32362;49.986;8.026;2023-07-20T04:47:55;22.70;68.50
46634;DHT22;32362;49.986;8.026;2023-07-20T05:36:16;23.50;80.60
46634;DHT22;32362;49.986;8.026;2023-07-20T06:02:57;18.10;85.20
46634;DHT22;32362;49.986;8.026;2023-07-20T06:56:19;19.10;89.40
46634;DHT22;32362;49.986;8.026;2023-07-20T07:22:59;20.00;83.30
46634;DHT22;32362;49.986;8.026;2023-07-20T07:49:42;21.30;79.80
46634;DHT22;32362;49.986;8.026;2023-07-20T08:16:23;22.10;77.80
46634;DHT22;32362;49.986;8.026;2023-07-20T08:43:04;22.50;71.30
46634;DHT22;32362;49.986;8.026;2023-07-20T09:09:45;22.30;72.30
46634;DHT22;32362;49.986;8.026;2023-07-20T09:36:27;23.50;68.60
46634;DHT22;32362;49.986;8.026;2023-07-20T10:03:08;24.70;64.10
46634;DHT22;32362;49.986;8.026;2023-07-20T10:29:51;24.20;66.50
46634;DHT22;32362;49.986;8.026;2023-07-20T10:56:33;27.40;58.60
46634;DHT22;32362;49.986;8.026;2023-07-20T11:23:14;29.70;54.30
46634;DHT22;32362;49.986;8.026;2023-07-20T11:50:03;29.20;55.40
46634;DHT22;32362;49.986;8.026;2023-07-20T12:16:53;27.30;53.90
46634;DHT22;32362;49.986;8.026;2023-07-20T12:43:35;28.60;51.30
46634;DHT22;32362;49.986;8.026;2023-07-20T13:10:16;30.90;47.60
46634;DHT22;32362;49.986;8.026;2023-07-20T13:36:57;33.70;48.70
46634;DHT22;32362;49.986;8.026;2023-07-20T14:03:37;29.20;47.00
46634;DHT22;32362;49.986;8.026;2023-07-20T14:30:18;27.80;51.50
46634;DHT22;32362;49.986;8.026;2023-07-20T14:56:59;28.60;51.30
46634;DHT22;32362;49.986;8.026;2023-07-20T15:23:42;29.20;52.30
46634;DHT22;32362;49.986;8.026;2023-07-20T15:50:23;27.50;55.20
46634;DHT22;32362;49.986;8.026;2023-07-20T16:17:04;28.30;52.90
46634;DHT22;32362;49.986;8.026;2023-07-20T16:43:45;30.20;49.50
46634;DHT22;32362;49.986;8.026;2023-07-20T17:10:25;28.30;51.70
46634;DHT22;32362;49.986;8.026;2023-07-20T17:37:06;28.00;51.50
46634;DHT22;32362;49.986;8.026;2023-07-20T18:03:47;26.80;54.70
46634;DHT22;32362;49.986;8.026;2023-07-20T18:30:27;26.30;56.60
46634;DHT22;32362;49.986;8.026;2023-07-20T18:57:13;25.30;57.70
46634;DHT22;32362;49.986;8.026;2023-07-20T19:23:54;24.80;61.20
46634;DHT22;32362;49.986;8.026;2023-07-20T19:50:35;24.20;68.20
46634;DHT22;32362;49.986;8.026;2023-07-20T20:17:16;23.50;63.30
46634;DHT22;32362;49.986;8.026;2023-07-20T20:43:57;23.10;68.20
46634;DHT22;32362;49.986;8.026;2023-07-20T21:10:42;22.90;66.80
46634;DHT22;32362;49.986;8.026;2023-07-20T21:37:23;22.50;66.40
46634;DHT22;32362;49.986;8.026;2023-07-20T22:04:04;22.40;70.10
46634;DHT22;32362;49.986;8.026;2023-07-20T22:30:45;22.20;68.80
46634;DHT22;32362;49.986;8.026;2023-07-20T22:57:28;22.00;69.70
46634;DHT22;32362;49.986;8.026;2023-07-20T23:24:08;21.70;74.10
46634;DHT22;32362;49.986;8.026;2023-07-20T23:50:49;21.50;72.40
